sensor_id;sensor_type;location;lat;lon;timestamp;P1;durP1;ratioP1;P2;durP2;ratioP2
21354;SDS011;10835;50.148;19.760;2023-04-24T00:01:21;8.00;;;3.75;;
21354;SDS011;10835;50.148;19.760;2023-04-24T00:03:50;5.28;;;3.42;;
21354;SDS011;10835;50.148;19.760;2023-04-24T00:06:18;5.40;;;3.58;;
21354;SDS011;10835;50.148;19.760;2023-04-24T00:08:47;4.20;;;3.55;;
21354;SDS011;10835;50.148;19.760;2023-04-24T00:11:15;4.95;;;3.80;;
21354;SDS011;10835;50.148;19.760;2023-04-24T00:13:44;5.53;;;3.20;;
21354;SDS011;10835;50.148;19.760;2023-04-24T00:16:13;5.95;;;3.85;;
21354;SDS011;10835;50.148;19.760;2023-04-24T00:18:41;8.95;;;3.60;;
21354;SDS011;10835;50.148;19.760;2023-04-24T00:21:11;7.72;;;3.60;;
21354;SDS011;10835;50.148;19.760;2023-04-24T00:23:39;6.93;;;4.43;;
21354;SDS011;10835;50.148;19.760;2023-04-24T00:26:07;7.78;;;4.18;;
21354;SDS011;10835;50.148;19.760;2023-04-24T00:28:36;6.68;;;3.60;;
21354;SDS011;10835;50.148;19.760;2023-04-24T00:31:05;6.55;;;3.83;;
21354;SDS011;10835;50.148;19.760;2023-04-24T00:33:34;8.05;;;3.60;;
21354;SDS011;10835;50.148;19.760;2023-04-24T00:36:03;10.02;;;3.97;;
21354;SDS011;10835;50.148;19.760;2023-04-24T00:38:32;7.05;;;3.72;;
21354;SDS011;10835;50.148;19.760;2023-04-24T00:41:00;6.90;;;3.80;;
21354;SDS011;10835;50.148;19.760;2023-04-24T00:43:28;8.48;;;4.10;;
21354;SDS011;10835;50.148;19.760;2023-04-24T00:45:57;7.65;;;3.80;;
21354;SDS011;10835;50.148;19.760;2023-04-24T00:48:27;6.53;;;4.18;;
21354;SDS011;10835;50.148;19.760;2023-04-24T00:50:55;6.47;;;4.38;;
21354;SDS011;10835;50.148;19.760;2023-04-24T00:53:25;6.28;;;3.90;;
21354;SDS011;10835;50.148;19.760;2023-04-24T00:55:53;7.57;;;3.72;;
21354;SDS011;10835;50.148;19.760;2023-04-24T00:58:21;5.10;;;3.35;;
21354;SDS011;10835;50.148;19.760;2023-04-24T01:00:50;8.20;;;3.72;;
21354;SDS011;10835;50.148;19.760;2023-04-24T01:03:21;6.45;;;3.58;;
21354;SDS011;10835;50.148;19.760;2023-04-24T01:05:54;5.80;;;3.95;;
21354;SDS011;10835;50.148;19.760;2023-04-24T01:08:23;5.10;;;3.65;;
21354;SDS011;10835;50.148;19.760;2023-04-24T01:10:52;6.15;;;3.90;;
21354;SDS011;10835;50.148;19.760;2023-04-24T01:13:20;5.80;;;3.55;;
21354;SDS011;10835;50.148;19.760;2023-04-24T01:15:49;6.53;;;3.85;;
21354;SDS011;10835;50.148;19.760;2023-04-24T01:18:17;7.20;;;3.53;;
21354;SDS011;10835;50.148;19.760;2023-04-24T01:20:45;5.47;;;3.15;;
21354;SDS011;10835;50.148;19.760;2023-04-24T01:23:15;4.57;;;3.20;;
21354;SDS011;10835;50.148;19.760;2023-04-24T01:25:44;5.45;;;3.30;;
21354;SDS011;10835;50.148;19.760;2023-04-24T01:28:13;5.93;;;4.03;;
21354;SDS011;10835;50.148;19.760;2023-04-24T01:30:41;5.03;;;3.53;;
21354;SDS011;10835;50.148;19.760;2023-04-24T01:33:10;6.50;;;4.03;;
21354;SDS011;10835;50.148;19.760;2023-04-24T01:35:39;3.97;;;2.95;;
21354;SDS011;10835;50.148;19.760;2023-04-24T01:38:07;8.10;;;3.47;;
21354;SDS011;10835;50.148;19.760;2023-04-24T01:40:37;8.40;;;3.72;;
21354;SDS011;10835;50.148;19.760;2023-04-24T01:43:05;4.63;;;3.20;;
21354;SDS011;10835;50.148;19.760;2023-04-24T01:45:34;6.30;;;3.40;;
21354;SDS011;10835;50.148;19.760;2023-04-24T01:48:03;4.53;;;3.03;;
21354;SDS011;10835;50.148;19.760;2023-04-24T01:50:32;5.18;;;3.47;;
21354;SDS011;10835;50.148;19.760;2023-04-24T01:53:00;4.85;;;3.35;;
21354;SDS011;10835;50.148;19.760;2023-04-24T01:55:28;5.93;;;4.20;;
21354;SDS011;10835;50.148;19.760;2023-04-24T01:57:58;4.45;;;3.33;;
21354;SDS011;10835;50.148;19.760;2023-04-24T02:00:28;6.32;;;3.55;;
21354;SDS011;10835;50.148;19.760;2023-04-24T02:02:56;6.00;;;3.47;;
21354;SDS011;10835;50.148;19.760;2023-04-24T02:05:25;8.43;;;3.33;;
21354;SDS011;10835;50.148;19.760;2023-04-24T02:07:54;5.95;;;3.58;;
21354;SDS011;10835;50.148;19.760;2023-04-24T02:10:23;6.68;;;3.30;;
21354;SDS011;10835;50.148;19.760;2023-04-24T02:12:51;7.28;;;2.95;;
21354;SDS011;10835;50.148;19.760;2023-04-24T02:15:24;7.10;;;3.83;;
21354;SDS011;10835;50.148;19.760;2023-04-24T02:17:52;7.43;;;3.20;;
21354;SDS011;10835;50.148;19.760;2023-04-24T02:20:21;4.18;;;3.00;;
21354;SDS011;10835;50.148;19.760;2023-04-24T02:22:50;6.10;;;2.97;;
21354;SDS011;10835;50.148;19.760;2023-04-24T02:25:18;5.15;;;3.33;;
21354;SDS011;10835;50.148;19.760;2023-04-24T02:27:47;4.03;;;2.90;;
21354;SDS011;10835;50.148;19.760;2023-04-24T02:30:15;4.20;;;3.33;;
21354;SDS011;10835;50.148;19.760;2023-04-24T02:32:45;4.40;;;3.08;;
21354;SDS011;10835;50.148;19.760;2023-04-24T02:35:14;4.38;;;2.97;;
21354;SDS011;10835;50.148;19.760;2023-04-24T02:37:42;4.53;;;3.08;;
21354;SDS011;10835;50.148;19.760;2023-04-24T02:40:11;3.63;;;2.65;;
21354;SDS011;10835;50.148;19.760;2023-04-24T02:42:40;4.00;;;3.05;;
21354;SDS011;10835;50.148;19.760;2023-04-24T02:45:08;3.63;;;2.85;;
21354;SDS011;10835;50.148;19.760;2023-04-24T02:47:37;3.83;;;3.15;;
21354;SDS011;10835;50.148;19.760;2023-04-24T02:50:07;3.03;;;2.72;;
21354;SDS011;10835;50.148;19.760;2023-04-24T02:52:36;4.57;;;2.80;;
21354;SDS011;10835;50.148;19.760;2023-04-24T02:55:04;4.10;;;2.75;;
21354;SDS011;10835;50.148;19.760;2023-04-24T02:57:34;6.85;;;3.72;;
21354;SDS011;10835;50.148;19.760;2023-04-24T03:00:03;5.32;;;3.63;;
21354;SDS011;10835;50.148;19.760;2023-04-24T03:02:33;4.47;;;2.55;;
21354;SDS011;10835;50.148;19.760;2023-04-24T03:05:02;3.92;;;2.83;;
21354;SDS011;10835;50.148;19.760;2023-04-24T03:07:32;4.35;;;2.65;;
21354;SDS011;10835;50.148;19.760;2023-04-24T03:10:00;5.15;;;2.60;;
21354;SDS011;10835;50.148;19.760;2023-04-24T03:12:28;3.00;;;2.45;;
21354;SDS011;10835;50.148;19.760;2023-04-24T03:14:56;4.57;;;3.00;;
21354;SDS011;10835;50.148;19.760;2023-04-24T03:17:25;5.47;;;2.75;;
21354;SDS011;10835;50.148;19.760;2023-04-24T03:19:53;9.88;;;2.95;;
21354;SDS011;10835;50.148;19.760;2023-04-24T03:22:22;4.38;;;2.65;;
21354;SDS011;10835;50.148;19.760;2023-04-24T03:24:53;3.55;;;2.60;;
21354;SDS011;10835;50.148;19.760;2023-04-24T03:27:23;4.32;;;2.85;;
21354;SDS011;10835;50.148;19.760;2023-04-24T03:30:03;4.78;;;3.08;;
21354;SDS011;10835;50.148;19.760;2023-04-24T03:32:55;3.25;;;2.60;;
21354;SDS011;10835;50.148;19.760;2023-04-24T03:35:27;3.95;;;2.60;;
21354;SDS011;10835;50.148;19.760;2023-04-24T03:38:00;4.38;;;3.00;;
21354;SDS011;10835;50.148;19.760;2023-04-24T03:40:49;4.93;;;3.42;;
21354;SDS011;10835;50.148;19.760;2023-04-24T03:43:34;4.85;;;2.80;;
21354;SDS011;10835;50.148;19.760;2023-04-24T03:46:04;4.88;;;3.20;;
21354;SDS011;10835;50.148;19.760;2023-04-24T03:48:37;4.07;;;3.03;;
21354;SDS011;10835;50.148;19.760;2023-04-24T03:51:07;2.92;;;2.55;;
21354;SDS011;10835;50.148;19.760;2023-04-24T03:53:38;10.05;;;3.03;;
21354;SDS011;10835;50.148;19.760;2023-04-24T03:56:09;4.10;;;2.60;;
21354;SDS011;10835;50.148;19.760;2023-04-24T03:58:39;6.50;;;3.30;;
21354;SDS011;10835;50.148;19.760;2023-04-24T04:01:08;3.63;;;2.53;;
21354;SDS011;10835;50.148;19.760;2023-04-24T04:03:51;3.28;;;2.70;;
21354;SDS011;10835;50.148;19.760;2023-04-24T04:06:24;3.10;;;2.70;;
21354;SDS011;10835;50.148;19.760;2023-04-24T04:08:54;3.90;;;2.72;;
21354;SDS011;10835;50.148;19.760;2023-04-24T04:11:24;5.30;;;2.83;;
21354;SDS011;10835;50.148;19.760;2023-04-24T04:13:52;3.35;;;2.47;;
21354;SDS011;10835;50.148;19.760;2023-04-24T04:16:21;4.00;;;2.90;;
21354;SDS011;10835;50.148;19.760;2023-04-24T04:18:53;6.40;;;3.17;;
21354;SDS011;10835;50.148;19.760;2023-04-24T04:21:22;3.10;;;2.47;;
21354;SDS011;10835;50.148;19.760;2023-04-24T04:23:56;7.40;;;2.78;;
21354;SDS011;10835;50.148;19.760;2023-04-24T04:26:32;3.67;;;2.88;;
21354;SDS011;10835;50.148;19.760;2023-04-24T04:29:04;6.07;;;2.78;;
21354;SDS011;10835;50.148;19.760;2023-04-24T04:31:36;5.30;;;2.50;;
21354;SDS011;10835;50.148;19.760;2023-04-24T04:34:09;4.25;;;2.72;;
21354;SDS011;10835;50.148;19.760;2023-04-24T04:36:38;3.95;;;2.45;;
21354;SDS011;10835;50.148;19.760;2023-04-24T04:39:20;4.63;;;2.70;;
21354;SDS011;10835;50.148;19.760;2023-04-24T04:41:56;3.17;;;2.70;;
21354;SDS011;10835;50.148;19.760;2023-04-24T04:44:29;5.07;;;3.10;;
21354;SDS011;10835;50.148;19.760;2023-04-24T04:46:59;6.35;;;2.92;;
21354;SDS011;10835;50.148;19.760;2023-04-24T04:49:32;5.03;;;2.92;;
21354;SDS011;10835;50.148;19.760;2023-04-24T04:52:06;3.42;;;2.78;;
21354;SDS011;10835;50.148;19.760;2023-04-24T04:54:34;5.45;;;3.38;;
21354;SDS011;10835;50.148;19.760;2023-04-24T04:57:04;4.03;;;3.17;;
21354;SDS011;10835;50.148;19.760;2023-04-24T04:59:34;3.58;;;2.90;;
21354;SDS011;10835;50.148;19.760;2023-04-24T05:02:08;4.25;;;2.70;;
21354;SDS011;10835;50.148;19.760;2023-04-24T05:04:36;6.93;;;2.92;;
21354;SDS011;10835;50.148;19.760;2023-04-24T05:07:05;5.47;;;3.25;;
21354;SDS011;10835;50.148;19.760;2023-04-24T05:09:38;7.00;;;3.40;;
21354;SDS011;10835;50.148;19.760;2023-04-24T05:12:09;12.73;;;6.47;;
21354;SDS011;10835;50.148;19.760;2023-04-24T05:14:46;10.18;;;5.93;;
21354;SDS011;10835;50.148;19.760;2023-04-24T05:17:14;5.70;;;3.58;;
21354;SDS011;10835;50.148;19.760;2023-04-24T05:19:45;5.78;;;4.03;;
21354;SDS011;10835;50.148;19.760;2023-04-24T05:22:15;3.80;;;3.40;;
21354;SDS011;10835;50.148;19.760;2023-04-24T05:24:49;7.45;;;3.20;;
21354;SDS011;10835;50.148;19.760;2023-04-24T05:27:41;6.25;;;4.68;;
21354;SDS011;10835;50.148;19.760;2023-04-24T05:30:14;6.05;;;4.00;;
21354;SDS011;10835;50.148;19.760;2023-04-24T05:32:42;9.43;;;4.05;;
21354;SDS011;10835;50.148;19.760;2023-04-24T05:35:13;6.43;;;4.03;;
21354;SDS011;10835;50.148;19.760;2023-04-24T05:37:41;9.77;;;5.70;;
21354;SDS011;10835;50.148;19.760;2023-04-24T05:40:11;27.23;;;13.25;;
21354;SDS011;10835;50.148;19.760;2023-04-24T05:42:39;17.40;;;9.88;;
21354;SDS011;10835;50.148;19.760;2023-04-24T05:45:10;10.50;;;5.13;;
21354;SDS011;10835;50.148;19.760;2023-04-24T05:47:43;8.55;;;4.25;;
21354;SDS011;10835;50.148;19.760;2023-04-24T05:50:11;6.78;;;3.78;;
21354;SDS011;10835;50.148;19.760;2023-04-24T05:52:40;4.97;;;3.92;;
21354;SDS011;10835;50.148;19.760;2023-04-24T05:55:24;18.30;;;10.38;;
21354;SDS011;10835;50.148;19.760;2023-04-24T05:57:54;8.18;;;5.25;;
21354;SDS011;10835;50.148;19.760;2023-04-24T06:00:26;5.65;;;4.07;;
21354;SDS011;10835;50.148;19.760;2023-04-24T06:03:02;7.78;;;4.40;;
21354;SDS011;10835;50.148;19.760;2023-04-24T06:05:33;9.35;;;3.67;;
21354;SDS011;10835;50.148;19.760;2023-04-24T06:08:04;3.97;;;3.20;;
21354;SDS011;10835;50.148;19.760;2023-04-24T06:10:36;7.60;;;4.05;;
21354;SDS011;10835;50.148;19.760;2023-04-24T06:13:07;5.78;;;3.47;;
21354;SDS011;10835;50.148;19.760;2023-04-24T06:15:39;9.48;;;3.72;;
21354;SDS011;10835;50.148;19.760;2023-04-24T06:18:13;4.38;;;3.22;;
21354;SDS011;10835;50.148;19.760;2023-04-24T06:20:41;5.35;;;3.55;;
21354;SDS011;10835;50.148;19.760;2023-04-24T06:23:09;6.22;;;3.78;;
21354;SDS011;10835;50.148;19.760;2023-04-24T06:25:38;6.63;;;3.50;;
21354;SDS011;10835;50.148;19.760;2023-04-24T06:28:07;6.05;;;3.30;;
21354;SDS011;10835;50.148;19.760;2023-04-24T06:30:36;6.95;;;3.50;;
21354;SDS011;10835;50.148;19.760;2023-04-24T06:33:04;5.47;;;3.60;;
21354;SDS011;10835;50.148;19.760;2023-04-24T06:35:45;4.30;;;3.15;;
21354;SDS011;10835;50.148;19.760;2023-04-24T06:38:13;4.18;;;3.28;;
21354;SDS011;10835;50.148;19.760;2023-04-24T06:40:42;6.47;;;3.72;;
21354;SDS011;10835;50.148;19.760;2023-04-24T06:43:12;3.75;;;3.20;;
21354;SDS011;10835;50.148;19.760;2023-04-24T06:45:41;4.93;;;3.60;;
21354;SDS011;10835;50.148;19.760;2023-04-24T06:48:10;2.67;;;2.47;;
21354;SDS011;10835;50.148;19.760;2023-04-24T06:50:38;5.80;;;2.90;;
21354;SDS011;10835;50.148;19.760;2023-04-24T06:53:07;3.80;;;3.42;;
21354;SDS011;10835;50.148;19.760;2023-04-24T06:55:37;11.77;;;3.60;;
21354;SDS011;10835;50.148;19.760;2023-04-24T06:58:05;8.52;;;3.67;;
21354;SDS011;10835;50.148;19.760;2023-04-24T07:00:35;3.78;;;3.10;;
21354;SDS011;10835;50.148;19.760;2023-04-24T07:03:07;4.88;;;3.20;;
21354;SDS011;10835;50.148;19.760;2023-04-24T07:05:38;9.00;;;3.50;;
21354;SDS011;10835;50.148;19.760;2023-04-24T07:08:08;7.53;;;4.22;;
21354;SDS011;10835;50.148;19.760;2023-04-24T07:10:37;6.82;;;3.50;;
21354;SDS011;10835;50.148;19.760;2023-04-24T07:13:06;12.20;;;3.95;;
21354;SDS011;10835;50.148;19.760;2023-04-24T07:15:36;8.48;;;3.75;;
21354;SDS011;10835;50.148;19.760;2023-04-24T07:18:04;5.45;;;3.30;;
21354;SDS011;10835;50.148;19.760;2023-04-24T07:20:32;13.60;;;4.32;;
21354;SDS011;10835;50.148;19.760;2023-04-24T07:23:01;12.15;;;4.25;;
21354;SDS011;10835;50.148;19.760;2023-04-24T07:25:32;6.57;;;4.05;;
21354;SDS011;10835;50.148;19.760;2023-04-24T07:28:01;7.55;;;3.97;;
21354;SDS011;10835;50.148;19.760;2023-04-24T07:30:30;4.82;;;4.00;;
21354;SDS011;10835;50.148;19.760;2023-04-24T07:33:00;9.95;;;3.65;;
21354;SDS011;10835;50.148;19.760;2023-04-24T07:35:28;7.57;;;3.17;;
21354;SDS011;10835;50.148;19.760;2023-04-24T07:37:57;8.30;;;3.53;;
21354;SDS011;10835;50.148;19.760;2023-04-24T07:40:25;9.75;;;4.07;;
21354;SDS011;10835;50.148;19.760;2023-04-24T07:42:54;8.23;;;3.70;;
21354;SDS011;10835;50.148;19.760;2023-04-24T07:45:25;6.47;;;3.78;;
21354;SDS011;10835;50.148;19.760;2023-04-24T07:47:54;9.55;;;3.70;;
21354;SDS011;10835;50.148;19.760;2023-04-24T07:50:25;4.22;;;3.47;;
21354;SDS011;10835;50.148;19.760;2023-04-24T07:52:53;10.00;;;3.78;;
21354;SDS011;10835;50.148;19.760;2023-04-24T07:55:21;7.90;;;4.00;;
21354;SDS011;10835;50.148;19.760;2023-04-24T07:57:53;8.23;;;3.60;;
21354;SDS011;10835;50.148;19.760;2023-04-24T08:00:24;4.18;;;3.13;;
21354;SDS011;10835;50.148;19.760;2023-04-24T08:02:52;11.13;;;3.50;;
21354;SDS011;10835;50.148;19.760;2023-04-24T08:05:20;5.30;;;3.80;;
21354;SDS011;10835;50.148;19.760;2023-04-24T08:07:50;10.57;;;3.30;;
21354;SDS011;10835;50.148;19.760;2023-04-24T08:10:18;6.15;;;3.17;;
21354;SDS011;10835;50.148;19.760;2023-04-24T08:12:48;5.30;;;3.20;;
21354;SDS011;10835;50.148;19.760;2023-04-24T08:15:16;4.07;;;3.10;;
21354;SDS011;10835;50.148;19.760;2023-04-24T08:17:45;6.03;;;2.83;;
21354;SDS011;10835;50.148;19.760;2023-04-24T08:20:13;5.65;;;3.10;;
21354;SDS011;10835;50.148;19.760;2023-04-24T08:22:42;5.18;;;3.28;;
21354;SDS011;10835;50.148;19.760;2023-04-24T08:25:14;4.60;;;3.13;;
21354;SDS011;10835;50.148;19.760;2023-04-24T08:27:44;9.15;;;3.25;;
21354;SDS011;10835;50.148;19.760;2023-04-24T08:30:12;9.85;;;3.95;;
21354;SDS011;10835;50.148;19.760;2023-04-24T08:32:41;8.73;;;3.75;;
21354;SDS011;10835;50.148;19.760;2023-04-24T08:35:09;7.93;;;3.53;;
21354;SDS011;10835;50.148;19.760;2023-04-24T08:37:38;7.32;;;3.55;;
21354;SDS011;10835;50.148;19.760;2023-04-24T08:40:07;6.57;;;3.20;;
21354;SDS011;10835;50.148;19.760;2023-04-24T08:42:42;5.57;;;3.00;;
21354;SDS011;10835;50.148;19.760;2023-04-24T08:45:12;4.78;;;3.20;;
21354;SDS011;10835;50.148;19.760;2023-04-24T08:47:40;6.63;;;3.40;;
21354;SDS011;10835;50.148;19.760;2023-04-24T08:50:10;6.70;;;3.30;;
21354;SDS011;10835;50.148;19.760;2023-04-24T08:52:39;9.65;;;3.50;;
21354;SDS011;10835;50.148;19.760;2023-04-24T08:55:09;4.15;;;3.20;;
21354;SDS011;10835;50.148;19.760;2023-04-24T08:57:37;7.88;;;3.22;;
21354;SDS011;10835;50.148;19.760;2023-04-24T09:00:08;4.90;;;3.53;;
21354;SDS011;10835;50.148;19.760;2023-04-24T09:02:39;5.70;;;3.30;;
21354;SDS011;10835;50.148;19.760;2023-04-24T09:05:10;3.05;;;2.60;;
21354;SDS011;10835;50.148;19.760;2023-04-24T09:07:40;4.60;;;3.33;;
21354;SDS011;10835;50.148;19.760;2023-04-24T09:10:12;3.30;;;3.00;;
21354;SDS011;10835;50.148;19.760;2023-04-24T09:12:43;4.93;;;3.00;;
21354;SDS011;10835;50.148;19.760;2023-04-24T09:15:14;3.45;;;2.65;;
21354;SDS011;10835;50.148;19.760;2023-04-24T09:17:43;3.42;;;2.80;;
21354;SDS011;10835;50.148;19.760;2023-04-24T09:20:11;4.35;;;2.63;;
21354;SDS011;10835;50.148;19.760;2023-04-24T09:22:40;4.07;;;2.80;;
21354;SDS011;10835;50.148;19.760;2023-04-24T09:25:09;4.18;;;2.45;;
21354;SDS011;10835;50.148;19.760;2023-04-24T09:27:41;3.97;;;2.22;;
21354;SDS011;10835;50.148;19.760;2023-04-24T09:30:15;5.53;;;2.92;;
21354;SDS011;10835;50.148;19.760;2023-04-24T09:32:49;3.40;;;2.50;;
21354;SDS011;10835;50.148;19.760;2023-04-24T09:35:26;3.53;;;2.30;;
21354;SDS011;10835;50.148;19.760;2023-04-24T09:37:54;4.70;;;2.90;;
21354;SDS011;10835;50.148;19.760;2023-04-24T09:40:25;2.75;;;2.45;;
21354;SDS011;10835;50.148;19.760;2023-04-24T09:42:54;3.58;;;2.70;;
21354;SDS011;10835;50.148;19.760;2023-04-24T09:45:27;3.85;;;2.88;;
21354;SDS011;10835;50.148;19.760;2023-04-24T09:48:02;4.15;;;2.60;;
21354;SDS011;10835;50.148;19.760;2023-04-24T09:50:31;4.07;;;2.38;;
21354;SDS011;10835;50.148;19.760;2023-04-24T09:53:04;4.30;;;2.42;;
21354;SDS011;10835;50.148;19.760;2023-04-24T09:55:38;5.07;;;3.05;;
21354;SDS011;10835;50.148;19.760;2023-04-24T09:58:07;3.88;;;2.80;;
21354;SDS011;10835;50.148;19.760;2023-04-24T10:00:38;4.55;;;2.40;;
21354;SDS011;10835;50.148;19.760;2023-04-24T10:03:06;3.50;;;2.78;;
21354;SDS011;10835;50.148;19.760;2023-04-24T10:05:35;4.65;;;2.72;;
21354;SDS011;10835;50.148;19.760;2023-04-24T10:08:05;2.58;;;2.30;;
21354;SDS011;10835;50.148;19.760;2023-04-24T10:10:35;4.72;;;2.85;;
21354;SDS011;10835;50.148;19.760;2023-04-24T10:13:07;6.72;;;2.47;;
21354;SDS011;10835;50.148;19.760;2023-04-24T10:15:39;6.47;;;2.90;;
21354;SDS011;10835;50.148;19.760;2023-04-24T10:18:09;4.60;;;2.70;;
21354;SDS011;10835;50.148;19.760;2023-04-24T10:20:39;3.55;;;2.58;;
21354;SDS011;10835;50.148;19.760;2023-04-24T10:23:07;2.78;;;2.53;;
21354;SDS011;10835;50.148;19.760;2023-04-24T10:25:36;6.68;;;3.17;;
21354;SDS011;10835;50.148;19.760;2023-04-24T10:28:04;3.78;;;2.88;;
21354;SDS011;10835;50.148;19.760;2023-04-24T10:30:36;2.95;;;2.63;;
21354;SDS011;10835;50.148;19.760;2023-04-24T10:33:06;4.07;;;2.33;;
21354;SDS011;10835;50.148;19.760;2023-04-24T10:35:37;4.13;;;2.38;;
21354;SDS011;10835;50.148;19.760;2023-04-24T10:38:08;4.05;;;2.63;;
21354;SDS011;10835;50.148;19.760;2023-04-24T10:40:38;2.92;;;2.30;;
21354;SDS011;10835;50.148;19.760;2023-04-24T10:43:07;2.97;;;2.50;;
21354;SDS011;10835;50.148;19.760;2023-04-24T10:45:37;2.97;;;2.50;;
21354;SDS011;10835;50.148;19.760;2023-04-24T10:48:08;5.78;;;2.83;;
21354;SDS011;10835;50.148;19.760;2023-04-24T10:50:43;3.67;;;2.70;;
21354;SDS011;10835;50.148;19.760;2023-04-24T10:53:13;2.72;;;2.50;;
21354;SDS011;10835;50.148;19.760;2023-04-24T10:55:44;2.50;;;2.13;;
21354;SDS011;10835;50.148;19.760;2023-04-24T10:58:14;3.83;;;2.50;;
21354;SDS011;10835;50.148;19.760;2023-04-24T11:00:43;4.15;;;3.00;;
21354;SDS011;10835;50.148;19.760;2023-04-24T11:03:25;3.42;;;2.80;;
21354;SDS011;10835;50.148;19.760;2023-04-24T11:05:58;4.20;;;2.75;;
21354;SDS011;10835;50.148;19.760;2023-04-24T11:08:29;4.30;;;3.15;;
21354;SDS011;10835;50.148;19.760;2023-04-24T11:11:00;4.60;;;2.63;;
21354;SDS011;10835;50.148;19.760;2023-04-24T11:16:36;5.88;;;2.67;;
21354;SDS011;10835;50.148;19.760;2023-04-24T11:19:20;4.10;;;2.55;;
21354;SDS011;10835;50.148;19.760;2023-04-24T11:21:55;4.47;;;2.70;;
21354;SDS011;10835;50.148;19.760;2023-04-24T11:24:28;5.00;;;2.97;;
21354;SDS011;10835;50.148;19.760;2023-04-24T11:27:01;3.47;;;2.90;;
21354;SDS011;10835;50.148;19.760;2023-04-24T11:29:41;3.88;;;2.65;;
21354;SDS011;10835;50.148;19.760;2023-04-24T11:32:14;4.88;;;3.13;;
21354;SDS011;10835;50.148;19.760;2023-04-24T11:34:49;4.10;;;2.60;;
21354;SDS011;10835;50.148;19.760;2023-04-24T11:37:18;3.70;;;2.78;;
21354;SDS011;10835;50.148;19.760;2023-04-24T11:39:46;6.55;;;3.10;;
21354;SDS011;10835;50.148;19.760;2023-04-24T11:42:19;3.28;;;2.97;;
21354;SDS011;10835;50.148;19.760;2023-04-24T11:44:49;9.38;;;3.58;;
21354;SDS011;10835;50.148;19.760;2023-04-24T11:47:17;3.00;;;2.70;;
21354;SDS011;10835;50.148;19.760;2023-04-24T11:49:46;5.15;;;2.83;;
21354;SDS011;10835;50.148;19.760;2023-04-24T11:52:18;4.38;;;3.13;;
21354;SDS011;10835;50.148;19.760;2023-04-24T11:54:47;3.25;;;2.78;;
21354;SDS011;10835;50.148;19.760;2023-04-24T11:57:18;4.07;;;2.75;;
21354;SDS011;10835;50.148;19.760;2023-04-24T11:59:48;4.57;;;2.88;;
21354;SDS011;10835;50.148;19.760;2023-04-24T12:02:20;3.92;;;2.60;;
21354;SDS011;10835;50.148;19.760;2023-04-24T12:04:49;3.45;;;3.03;;
21354;SDS011;10835;50.148;19.760;2023-04-24T12:07:20;5.57;;;2.60;;
21354;SDS011;10835;50.148;19.760;2023-04-24T12:09:50;6.38;;;2.63;;
21354;SDS011;10835;50.148;19.760;2023-04-24T12:12:24;3.42;;;2.88;;
21354;SDS011;10835;50.148;19.760;2023-04-24T12:14:54;3.40;;;2.90;;
21354;SDS011;10835;50.148;19.760;2023-04-24T12:17:24;3.97;;;3.00;;
21354;SDS011;10835;50.148;19.760;2023-04-24T12:19:57;3.17;;;2.65;;
21354;SDS011;10835;50.148;19.760;2023-04-24T12:22:35;4.40;;;2.90;;
21354;SDS011;10835;50.148;19.760;2023-04-24T12:25:12;3.95;;;2.95;;
21354;SDS011;10835;50.148;19.760;2023-04-24T12:27:46;7.10;;;3.20;;
21354;SDS011;10835;50.148;19.760;2023-04-24T12:30:27;12.40;;;3.85;;
21354;SDS011;10835;50.148;19.760;2023-04-24T12:32:59;8.63;;;3.63;;
21354;SDS011;10835;50.148;19.760;2023-04-24T12:35:28;3.95;;;3.05;;
21354;SDS011;10835;50.148;19.760;2023-04-24T12:38:06;4.88;;;3.25;;
21354;SDS011;10835;50.148;19.760;2023-04-24T12:40:35;4.60;;;3.13;;
21354;SDS011;10835;50.148;19.760;2023-04-24T12:43:12;7.03;;;3.38;;
21354;SDS011;10835;50.148;19.760;2023-04-24T12:45:41;4.05;;;3.25;;
21354;SDS011;10835;50.148;19.760;2023-04-24T12:48:11;3.65;;;2.92;;
21354;SDS011;10835;50.148;19.760;2023-04-24T12:50:40;8.10;;;3.85;;
21354;SDS011;10835;50.148;19.760;2023-04-24T12:53:13;5.95;;;3.17;;
21354;SDS011;10835;50.148;19.760;2023-04-24T12:55:42;6.78;;;3.90;;
21354;SDS011;10835;50.148;19.760;2023-04-24T12:58:13;5.18;;;3.85;;
21354;SDS011;10835;50.148;19.760;2023-04-24T13:00:41;5.07;;;3.33;;
21354;SDS011;10835;50.148;19.760;2023-04-24T13:03:12;4.75;;;3.50;;
21354;SDS011;10835;50.148;19.760;2023-04-24T13:05:41;8.23;;;3.25;;
21354;SDS011;10835;50.148;19.760;2023-04-24T13:08:10;4.18;;;3.03;;
21354;SDS011;10835;50.148;19.760;2023-04-24T13:10:40;5.35;;;4.30;;
21354;SDS011;10835;50.148;19.760;2023-04-24T13:13:09;5.00;;;3.20;;
21354;SDS011;10835;50.148;19.760;2023-04-24T13:15:37;3.70;;;2.45;;
21354;SDS011;10835;50.148;19.760;2023-04-24T13:18:05;4.43;;;2.97;;
21354;SDS011;10835;50.148;19.760;2023-04-24T13:20:33;5.95;;;3.72;;
21354;SDS011;10835;50.148;19.760;2023-04-24T13:23:02;5.18;;;3.40;;
21354;SDS011;10835;50.148;19.760;2023-04-24T13:25:34;6.57;;;3.22;;
21354;SDS011;10835;50.148;19.760;2023-04-24T13:28:05;5.13;;;3.05;;
21354;SDS011;10835;50.148;19.760;2023-04-24T13:30:33;3.83;;;3.17;;
21354;SDS011;10835;50.148;19.760;2023-04-24T13:33:01;4.13;;;3.40;;
21354;SDS011;10835;50.148;19.760;2023-04-24T13:35:32;5.95;;;2.70;;
21354;SDS011;10835;50.148;19.760;2023-04-24T13:38:01;6.15;;;3.25;;
21354;SDS011;10835;50.148;19.760;2023-04-24T13:40:32;4.47;;;2.83;;
21354;SDS011;10835;50.148;19.760;2023-04-24T13:43:01;4.63;;;3.13;;
21354;SDS011;10835;50.148;19.760;2023-04-24T13:45:30;4.20;;;3.05;;
21354;SDS011;10835;50.148;19.760;2023-04-24T13:47:59;4.80;;;3.42;;
21354;SDS011;10835;50.148;19.760;2023-04-24T13:50:28;7.50;;;3.10;;
21354;SDS011;10835;50.148;19.760;2023-04-24T13:52:56;3.53;;;2.97;;
21354;SDS011;10835;50.148;19.760;2023-04-24T13:55:28;8.60;;;3.63;;
21354;SDS011;10835;50.148;19.760;2023-04-24T13:57:57;5.57;;;3.20;;
21354;SDS011;10835;50.148;19.760;2023-04-24T14:00:25;3.97;;;2.70;;
21354;SDS011;10835;50.148;19.760;2023-04-24T14:02:55;2.60;;;2.17;;
21354;SDS011;10835;50.148;19.760;2023-04-24T14:05:26;2.83;;;1.95;;
21354;SDS011;10835;50.148;19.760;2023-04-24T14:07:54;4.70;;;1.83;;
21354;SDS011;10835;50.148;19.760;2023-04-24T14:10:22;1.70;;;1.48;;
21354;SDS011;10835;50.148;19.760;2023-04-24T14:12:50;2.70;;;1.50;;
21354;SDS011;10835;50.148;19.760;2023-04-24T14:15:19;1.45;;;1.30;;
21354;SDS011;10835;50.148;19.760;2023-04-24T14:17:47;1.30;;;1.20;;
21354;SDS011;10835;50.148;19.760;2023-04-24T14:20:18;1.35;;;1.17;;
21354;SDS011;10835;50.148;19.760;2023-04-24T14:22:46;1.45;;;1.20;;
21354;SDS011;10835;50.148;19.760;2023-04-24T14:25:14;1.92;;;0.93;;
21354;SDS011;10835;50.148;19.760;2023-04-24T14:27:43;1.25;;;1.15;;
21354;SDS011;10835;50.148;19.760;2023-04-24T14:30:12;1.90;;;1.30;;
21354;SDS011;10835;50.148;19.760;2023-04-24T14:32:41;1.77;;;1.55;;
21354;SDS011;10835;50.148;19.760;2023-04-24T14:35:10;1.65;;;1.50;;
21354;SDS011;10835;50.148;19.760;2023-04-24T14:37:39;1.42;;;1.33;;
21354;SDS011;10835;50.148;19.760;2023-04-24T14:40:09;1.65;;;1.40;;
21354;SDS011;10835;50.148;19.760;2023-04-24T14:42:58;1.67;;;1.50;;
21354;SDS011;10835;50.148;19.760;2023-04-24T14:45:26;1.58;;;1.23;;
21354;SDS011;10835;50.148;19.760;2023-04-24T14:47:55;2.17;;;1.40;;
21354;SDS011;10835;50.148;19.760;2023-04-24T14:50:24;1.50;;;1.40;;
21354;SDS011;10835;50.148;19.760;2023-04-24T14:52:56;2.33;;;1.65;;
21354;SDS011;10835;50.148;19.760;2023-04-24T14:55:24;2.38;;;1.50;;